Terminal Aerodrome Forecast
Issued by NWS Wilmington, NC

Home | Current Version | Previous Version | Text Only | Print | Product List | Glossary On
Versions: 1 2 3 4 5 6 7 8 9 10 11 12 13 14 15 16 17 18 19 20 21 22 23 24 25 26 27 28 29
000
FTUS42 KILM 042300 CCA
TAFMYR
TAF COR
KMYR 042356Z 0500/0524 19013KT P6SM FEW003
     FM050600 21010KT 2SM BR BKN002 WS010/22040KT
     FM050900 22008KT 1 1/2SM BR BKN001 WS010/22035KT
     FM051400 23010G20KT P6SM FEW002 SCT035
     FM052200 35013G22KT P6SM -RA OVC012
      AMD LTD TO CLD VIS AND WIND 0504/0511=

USA.gov is the U.S. government's official web portal to all federal, state and local government web resources and services.